createdAt,value
2023-04-06T00:02:24.897Z,23.15
2023-04-06T00:04:57.882Z,21.80
2023-04-06T00:07:28.662Z,25.02
2023-04-06T00:09:59.121Z,24.35
2023-04-06T00:12:29.738Z,22.42
2023-04-06T00:15:00.255Z,20.30
2023-04-06T00:17:30.930Z,21.67
2023-04-06T00:20:01.408Z,19.38
2023-04-06T00:22:31.865Z,19.13
2023-04-06T00:25:02.262Z,16.85
2023-04-06T00:27:33.422Z,19.02
2023-04-06T00:30:03.891Z,19.92
2023-04-06T00:32:34.796Z,19.33
2023-04-06T00:35:09.209Z,20.13
2023-04-06T00:37:39.717Z,22.15
2023-04-06T00:40:10.859Z,20.17
2023-04-06T00:42:42.470Z,19.85
2023-04-06T00:45:14.275Z,19.23
2023-04-06T00:47:44.965Z,19.95
2023-04-06T00:50:15.603Z,20.67
2023-04-06T00:52:46.097Z,24.30
2023-04-06T00:55:16.934Z,22.00
2023-04-06T00:57:47.432Z,21.88
2023-04-06T01:00:19.533Z,23.27
2023-04-06T01:02:52.439Z,22.77
2023-04-06T01:05:26.508Z,24.08
2023-04-06T01:08:00.608Z,26.33
2023-04-06T01:10:33.033Z,25.90
2023-04-06T01:13:14.254Z,22.05
2023-04-06T01:15:57.648Z,25.90
2023-04-06T01:18:38.693Z,25.55
2023-04-06T01:21:35.602Z,26.38
2023-04-06T01:24:23.479Z,26.02
2023-04-06T01:27:03.732Z,24.83
2023-04-06T01:29:57.418Z,26.83
2023-04-06T01:33:06.496Z,30.25
2023-04-06T01:38:30.143Z,26.95
2023-04-06T01:41:00.794Z,27.50
2023-04-06T01:43:36.504Z,26.88
2023-04-06T01:46:12.647Z,24.10
2023-04-06T01:48:46.201Z,23.15
2023-04-06T01:51:31.399Z,22.88
2023-04-06T01:54:05.273Z,22.65
2023-04-06T01:56:56.674Z,25.42
2023-04-06T01:59:56.986Z,23.65
2023-04-06T02:02:43.147Z,22.45
2023-04-06T02:05:20.963Z,23.20
2023-04-06T02:07:54.067Z,22.05
2023-04-06T02:10:33.863Z,24.38
2023-04-06T02:13:10.800Z,20.85
2023-04-06T02:15:43.147Z,21.75
2023-04-06T02:18:17.816Z,21.00
2023-04-06T02:20:48.330Z,22.73
2023-04-06T02:23:18.877Z,19.85
2023-04-06T02:26:06.155Z,17.85
2023-04-06T02:28:39.339Z,16.23
2023-04-06T02:31:09.885Z,17.95
2023-04-06T02:33:41.440Z,17.63
2023-04-06T02:36:13.341Z,18.40
2023-04-06T02:38:44.903Z,15.75
2023-04-06T02:41:15.449Z,14.88
2023-04-06T02:43:46.090Z,14.38
2023-04-06T02:46:24.732Z,14.55
2023-04-06T02:48:55.634Z,12.35
2023-04-06T02:51:26.267Z,17.13
2023-04-06T02:54:00.485Z,12.63
2023-04-06T02:56:31.952Z,16.67
2023-04-06T02:59:02.841Z,10.30
2023-04-06T03:01:36.105Z,12.07
2023-04-06T03:04:08.961Z,9.77
2023-04-06T03:06:39.386Z,9.40
2023-04-06T03:09:20.582Z,9.38
2023-04-06T03:11:51.038Z,9.23
2023-04-06T03:14:24.301Z,9.73
2023-04-06T03:16:54.829Z,7.97
2023-04-06T03:19:26.390Z,8.65
2023-04-06T03:22:00.161Z,8.27
2023-04-06T03:24:31.548Z,8.68
2023-04-06T03:27:02.854Z,7.78
2023-04-06T03:29:34.317Z,7.50
2023-04-06T03:32:04.968Z,6.40
2023-04-06T03:34:42.945Z,7.13
2023-04-06T03:37:13.542Z,6.40
2023-04-06T03:39:50.064Z,6.10
2023-04-06T03:42:28.198Z,6.00
2023-04-06T03:45:06.785Z,7.75
2023-04-06T03:47:38.677Z,5.70
2023-04-06T03:50:11.671Z,6.03
2023-04-06T03:52:42.869Z,4.93
2023-04-06T03:55:13.498Z,4.15
2023-04-06T03:57:44.863Z,4.72
2023-04-06T04:00:16.395Z,3.28
2023-04-06T04:02:47.115Z,3.75
2023-04-06T04:05:17.996Z,5.10
2023-04-06T04:07:48.513Z,3.50
2023-04-06T04:10:19.534Z,4.38
2023-04-06T04:12:50.069Z,3.40
2023-04-06T04:15:20.564Z,4.25
2023-04-06T04:17:53.094Z,5.20
2023-04-06T04:20:24.099Z,4.50
2023-04-06T04:22:54.532Z,5.43
2023-04-06T04:25:26.609Z,5.95
2023-04-06T04:27:57.412Z,5.35
2023-04-06T04:30:28.244Z,6.18
2023-04-06T04:32:58.920Z,4.45
2023-04-06T04:35:30.300Z,8.23
2023-04-06T04:38:01.151Z,7.70
2023-04-06T04:40:32.042Z,13.07
2023-04-06T04:43:11.870Z,14.75
2023-04-06T04:45:42.767Z,16.90
2023-04-06T04:48:23.162Z,13.77
2023-04-06T04:50:58.534Z,14.07
2023-04-06T04:53:35.171Z,16.88
2023-04-06T04:56:17.580Z,24.45
2023-04-06T04:58:49.809Z,20.83
2023-04-06T05:01:21.136Z,25.77
2023-04-06T05:03:52.129Z,23.05
2023-04-06T05:06:22.978Z,27.45
2023-04-06T05:08:54.274Z,28.15
2023-04-06T05:11:25.852Z,26.98
2023-04-06T05:14:02.874Z,33.58
2023-04-06T05:16:33.343Z,34.58
2023-04-06T05:19:04.022Z,34.58
2023-04-06T05:21:42.270Z,35.75
2023-04-06T05:24:13.162Z,32.10
2023-04-06T05:26:45.352Z,31.17
2023-04-06T05:29:23.740Z,35.30
2023-04-06T05:31:54.796Z,33.83
2023-04-06T05:34:25.461Z,37.72
2023-04-06T05:36:55.888Z,38.40
2023-04-06T05:39:28.924Z,55.03
2023-04-06T05:41:59.422Z,55.20
2023-04-06T05:44:52.318Z,59.97
2023-04-06T05:47:23.862Z,65.10
2023-04-06T05:50:02.130Z,69.18
2023-04-06T05:52:39.123Z,67.18
2023-04-06T05:55:10.741Z,70.93
2023-04-06T05:57:44.542Z,85.63
2023-04-06T06:00:19.145Z,71.88
2023-04-06T06:03:00.084Z,78.10
2023-04-06T06:05:32.777Z,69.03
2023-04-06T06:08:11.356Z,59.92
2023-04-06T06:10:42.915Z,67.22
2023-04-06T06:13:15.529Z,70.05
2023-04-06T06:15:46.523Z,67.72
2023-04-06T06:20:51.413Z,64.55
2023-04-06T06:23:22.059Z,73.05
2023-04-06T06:25:52.840Z,70.70
2023-04-06T06:30:56.153Z,71.07
2023-04-06T06:33:28.699Z,74.40
2023-04-06T06:36:00.022Z,68.72
2023-04-06T06:38:34.252Z,70.70
2023-04-06T06:41:05.076Z,65.53
2023-04-06T06:46:11.765Z,65.72
2023-04-06T06:48:44.428Z,74.15
2023-04-06T06:51:15.163Z,69.28
2023-04-06T06:53:45.327Z,69.10
2023-04-06T06:56:15.706Z,71.13
2023-04-06T06:58:47.593Z,70.10
2023-04-06T07:01:18.221Z,69.03
2023-04-06T07:03:49.115Z,68.95
2023-04-06T07:06:19.540Z,73.05
2023-04-06T07:08:49.961Z,74.13
2023-04-06T07:11:20.785Z,65.60
2023-04-06T07:13:51.300Z,73.57
2023-04-06T07:16:23.586Z,69.63
2023-04-06T07:18:54.073Z,66.88
2023-04-06T07:21:25.084Z,71.15
2023-04-06T07:23:55.465Z,64.05
2023-04-06T07:26:25.868Z,72.13
2023-04-06T07:28:56.380Z,64.57
2023-04-06T07:31:28.067Z,70.45
2023-04-06T07:33:58.880Z,69.22
2023-04-06T07:36:30.166Z,61.40
2023-04-06T07:39:00.405Z,66.32
2023-04-06T07:41:31.107Z,69.97
2023-04-06T07:44:02.034Z,65.78
2023-04-06T07:46:35.741Z,69.00
2023-04-06T07:49:06.782Z,71.03
2023-04-06T07:51:42.745Z,64.38
2023-04-06T07:54:14.355Z,67.25
2023-04-06T07:56:48.075Z,72.78
2023-04-06T07:59:19.103Z,73.97
2023-04-06T08:01:49.629Z,66.13
2023-04-06T08:04:20.080Z,77.47
2023-04-06T08:06:50.711Z,80.10
2023-04-06T08:09:21.134Z,72.45
2023-04-06T08:11:51.832Z,62.65
2023-04-06T08:14:22.684Z,70.28
2023-04-06T08:16:53.114Z,63.58
2023-04-06T08:19:23.590Z,60.35
2023-04-06T08:21:55.179Z,67.47
2023-04-06T08:24:25.433Z,71.72
2023-04-06T08:26:56.490Z,64.43
2023-04-06T08:29:27.332Z,63.88
2023-04-06T08:31:57.988Z,65.93
2023-04-06T08:34:29.196Z,61.35
2023-04-06T08:36:59.638Z,55.20
2023-04-06T08:39:33.241Z,56.83
2023-04-06T08:42:07.157Z,63.08
2023-04-06T08:44:37.645Z,67.88
2023-04-06T08:47:08.773Z,60.83
2023-04-06T08:49:43.631Z,60.50
2023-04-06T08:52:14.885Z,58.13
2023-04-06T08:54:46.031Z,59.67
2023-04-06T08:57:16.851Z,61.58
2023-04-06T08:59:48.408Z,56.58
2023-04-06T09:02:22.167Z,61.10
2023-04-06T09:04:57.436Z,57.92
2023-04-06T09:07:27.879Z,56.92
2023-04-06T09:09:58.293Z,59.90
2023-04-06T09:12:33.101Z,64.63
2023-04-06T09:15:04.610Z,56.00
2023-04-06T09:17:36.478Z,60.03
2023-04-06T09:20:07.563Z,61.25
2023-04-06T09:22:42.757Z,56.80
2023-04-06T09:25:23.982Z,57.17
2023-04-06T09:28:06.202Z,54.38
2023-04-06T09:30:38.407Z,56.83
2023-04-06T09:33:09.339Z,58.70
2023-04-06T09:35:39.631Z,56.00
2023-04-06T09:38:14.897Z,52.95
2023-04-06T09:41:01.443Z,56.40
2023-04-06T09:43:33.261Z,54.13
2023-04-06T09:46:06.065Z,59.92
2023-04-06T09:48:38.394Z,60.28
2023-04-06T09:51:12.798Z,68.22
2023-04-06T09:53:48.085Z,65.22
2023-04-06T09:56:22.861Z,63.13
2023-04-06T09:58:57.182Z,69.80
2023-04-06T10:01:33.136Z,67.30
2023-04-06T10:04:46.845Z,73.78
2023-04-06T10:07:18.233Z,72.32
2023-04-06T10:09:50.954Z,73.15
2023-04-06T10:12:22.095Z,77.68
2023-04-06T10:14:52.755Z,77.28
2023-04-06T10:17:23.355Z,77.00
2023-04-06T10:20:05.803Z,85.53
2023-04-06T10:22:53.264Z,84.80
2023-04-06T10:25:41.569Z,80.47
2023-04-06T10:28:14.989Z,86.35
2023-04-06T10:30:46.285Z,85.65
2023-04-06T10:33:22.884Z,88.00
2023-04-06T10:35:56.499Z,85.40
2023-04-06T10:38:43.193Z,87.63
2023-04-06T10:41:15.173Z,89.25
2023-04-06T10:43:47.453Z,90.25
2023-04-06T10:46:28.952Z,93.82
2023-04-06T10:49:00.234Z,93.13
2023-04-06T10:51:32.146Z,91.75
2023-04-06T10:54:04.016Z,103.38
2023-04-06T10:56:39.618Z,101.82
2023-04-06T10:59:10.302Z,93.68
2023-04-06T11:01:41.158Z,99.22
2023-04-06T11:04:15.830Z,100.38
2023-04-06T11:06:51.436Z,98.47
2023-04-06T11:09:33.876Z,105.22
2023-04-06T11:12:04.333Z,101.40
2023-04-06T11:14:34.758Z,94.70
2023-04-06T11:17:06.337Z,99.75
2023-04-06T11:19:37.864Z,102.32
2023-04-06T11:22:12.273Z,99.67
2023-04-06T11:24:42.689Z,110.80
2023-04-06T11:27:13.561Z,102.68
2023-04-06T11:29:44.133Z,108.30
2023-04-06T11:32:14.808Z,105.85
2023-04-06T11:34:46.165Z,107.32
2023-04-06T11:37:16.983Z,109.95
2023-04-06T11:39:55.332Z,109.97
2023-04-06T11:42:31.952Z,111.38
2023-04-06T11:45:06.645Z,111.75
2023-04-06T11:47:40.189Z,110.40
2023-04-06T11:50:15.730Z,119.43
2023-04-06T11:52:46.489Z,118.95
2023-04-06T11:55:21.735Z,117.82
2023-04-06T11:57:52.465Z,119.45
2023-04-06T12:00:24.793Z,116.78
2023-04-06T12:02:55.235Z,116.97
2023-04-06T12:05:26.419Z,124.72
2023-04-06T12:07:58.095Z,115.05
2023-04-06T12:10:30.486Z,121.18
2023-04-06T12:13:01.233Z,121.72
2023-04-06T12:15:31.854Z,125.82
2023-04-06T12:18:02.606Z,124.88
2023-04-06T12:20:34.323Z,122.53
2023-04-06T12:23:04.831Z,121.72
2023-04-06T12:25:36.166Z,124.72
2023-04-06T12:28:06.405Z,120.82
2023-04-06T12:30:38.428Z,127.30
2023-04-06T12:33:09.290Z,123.72
2023-04-06T12:35:41.294Z,128.40
2023-04-06T12:38:11.880Z,126.40
2023-04-06T12:40:42.897Z,129.02
2023-04-06T12:43:16.691Z,128.10
2023-04-06T12:45:47.666Z,132.73
2023-04-06T12:48:18.358Z,126.30
2023-04-06T12:51:04.900Z,132.55
2023-04-06T12:53:37.801Z,134.32
2023-04-06T12:56:19.767Z,136.75
2023-04-06T12:58:50.476Z,134.77
2023-04-06T13:01:21.350Z,137.18
2023-04-06T13:03:52.407Z,130.40
2023-04-06T13:06:22.939Z,134.38
2023-04-06T13:08:56.247Z,134.38
2023-04-06T13:11:29.053Z,138.60
2023-04-06T13:14:00.362Z,133.00
2023-04-06T13:16:31.678Z,142.55
2023-04-06T13:19:02.172Z,145.52
2023-04-06T13:21:33.042Z,134.75
2023-04-06T13:24:03.642Z,143.90
2023-04-06T13:26:34.708Z,141.63
2023-04-06T13:29:05.227Z,142.07
2023-04-06T13:31:36.313Z,143.35
2023-04-06T13:34:06.608Z,144.77
2023-04-06T13:36:37.352Z,143.98
2023-04-06T13:39:07.835Z,151.55
2023-04-06T13:41:38.271Z,141.07
2023-04-06T13:44:08.775Z,141.30
2023-04-06T13:46:39.791Z,149.23
2023-04-06T13:49:10.218Z,142.23
2023-04-06T13:51:40.690Z,151.82
2023-04-06T13:54:11.211Z,145.20
2023-04-06T13:56:41.914Z,144.55
2023-04-06T13:59:12.396Z,154.07
2023-04-06T14:01:43.519Z,149.38
2023-04-06T14:04:16.898Z,153.85
2023-04-06T14:06:49.078Z,152.88
2023-04-06T14:09:19.521Z,146.40
2023-04-06T14:11:50.052Z,147.55
2023-04-06T14:14:20.930Z,148.43
2023-04-06T14:16:51.508Z,145.40
2023-04-06T14:19:22.216Z,149.65
2023-04-06T14:21:53.186Z,149.25
2023-04-06T14:24:24.066Z,153.93
2023-04-06T14:26:55.257Z,151.20
2023-04-06T14:29:25.731Z,153.57
2023-04-06T14:32:02.181Z,146.13
2023-04-06T14:34:32.842Z,156.52
2023-04-06T14:37:03.394Z,150.63
2023-04-06T14:39:33.851Z,156.13
2023-04-06T14:42:05.357Z,156.05
2023-04-06T14:44:39.084Z,153.65
2023-04-06T14:47:09.517Z,151.48
2023-04-06T14:49:41.634Z,152.90
2023-04-06T14:52:12.123Z,153.00
2023-04-06T14:54:43.263Z,161.57
2023-04-06T14:57:13.707Z,157.75
2023-04-06T14:59:44.426Z,154.18
2023-04-06T15:02:15.063Z,150.80
2023-04-06T15:04:45.794Z,149.20
2023-04-06T15:07:16.205Z,151.52
2023-04-06T15:09:46.591Z,158.38
2023-04-06T15:12:17.400Z,155.60
2023-04-06T15:14:48.307Z,162.20
2023-04-06T15:17:18.771Z,161.63
2023-04-06T15:19:48.994Z,162.23
2023-04-06T15:22:19.263Z,158.50
2023-04-06T15:24:50.205Z,158.00
2023-04-06T15:27:20.566Z,158.15
2023-04-06T15:29:51.248Z,162.85
2023-04-06T15:32:21.686Z,157.32
2023-04-06T15:34:53.072Z,161.40
2023-04-06T15:37:23.510Z,159.23
2023-04-06T15:39:53.944Z,156.48
2023-04-06T15:42:25.289Z,158.27
2023-04-06T15:44:55.790Z,161.80
2023-04-06T15:47:26.235Z,149.82
2023-04-06T15:49:57.336Z,153.77
2023-04-06T15:52:27.793Z,158.48
2023-04-06T15:54:58.945Z,157.57
2023-04-06T15:57:29.551Z,154.25
2023-04-06T16:00:01.298Z,156.23
2023-04-06T16:02:32.231Z,156.85
2023-04-06T16:05:05.315Z,155.00
2023-04-06T16:07:36.986Z,158.68
2023-04-06T16:10:08.641Z,158.30
2023-04-06T16:12:39.182Z,157.88
2023-04-06T16:15:12.295Z,154.07
2023-04-06T16:17:45.168Z,153.90
2023-04-06T16:20:17.537Z,154.87
2023-04-06T16:22:49.224Z,158.02
2023-04-06T16:25:19.669Z,157.93
2023-04-06T16:27:50.142Z,153.13
2023-04-06T16:30:20.858Z,150.80
2023-04-06T16:32:53.261Z,152.65
2023-04-06T16:35:24.619Z,147.43
2023-04-06T16:37:57.652Z,151.35
2023-04-06T16:40:28.173Z,144.85
2023-04-06T16:42:58.638Z,142.27
2023-04-06T16:45:29.393Z,142.00
2023-04-06T16:47:59.790Z,149.35
2023-04-06T16:50:30.447Z,144.45
2023-04-06T16:53:00.827Z,142.07
2023-04-06T16:55:31.322Z,145.68
2023-04-06T16:58:01.866Z,145.05
2023-04-06T17:00:32.237Z,144.18
2023-04-06T17:03:03.064Z,141.48
2023-04-06T17:05:36.178Z,143.00
2023-04-06T17:08:07.441Z,137.30
2023-04-06T17:10:46.448Z,141.40
2023-04-06T17:13:28.335Z,138.82
2023-04-06T17:15:58.789Z,138.15
2023-04-06T17:18:31.712Z,136.15
2023-04-06T17:21:06.468Z,137.63
2023-04-06T17:23:36.817Z,136.65
2023-04-06T17:26:08.863Z,137.10
2023-04-06T17:28:39.780Z,135.13
2023-04-06T17:31:12.020Z,133.90
2023-04-06T17:33:44.263Z,129.02
2023-04-06T17:36:15.097Z,129.90
2023-04-06T17:38:47.275Z,127.22
2023-04-06T17:41:18.181Z,130.98
2023-04-06T17:43:49.717Z,129.02
2023-04-06T17:46:21.958Z,127.55
2023-04-06T17:51:23.940Z,126.13
2023-04-06T17:53:55.392Z,131.50
2023-04-06T17:56:25.877Z,125.03
2023-04-06T17:59:00.869Z,122.68
2023-04-06T18:01:33.054Z,119.80
2023-04-06T18:04:03.507Z,123.80
2023-04-06T18:06:34.170Z,123.85
2023-04-06T18:09:05.265Z,121.13
2023-04-06T18:11:35.903Z,124.10
2023-04-06T18:14:12.690Z,114.90
2023-04-06T18:16:43.876Z,119.60
2023-04-06T18:19:15.148Z,117.75
2023-04-06T18:21:45.711Z,115.68
2023-04-06T18:24:27.141Z,117.47
2023-04-06T18:27:04.118Z,118.82
2023-04-06T18:29:35.675Z,115.57
2023-04-06T18:32:07.520Z,111.15
2023-04-06T18:34:37.990Z,110.15
2023-04-06T18:37:09.848Z,111.45
2023-04-06T18:39:40.275Z,113.75
2023-04-06T18:42:11.384Z,106.97
2023-04-06T18:44:41.700Z,106.90
2023-04-06T18:47:12.131Z,107.70
2023-04-06T18:49:43.096Z,102.68
2023-04-06T18:52:14.427Z,103.20
2023-04-06T18:54:44.869Z,99.10
2023-04-06T18:57:15.362Z,97.25
2023-04-06T18:59:46.153Z,92.88
2023-04-06T19:02:17.884Z,88.65
2023-04-06T19:04:48.479Z,89.18
2023-04-06T19:07:18.897Z,88.82
2023-04-06T19:09:49.325Z,84.53
2023-04-06T19:12:19.739Z,83.50
2023-04-06T19:14:53.409Z,80.40
2023-04-06T19:17:24.533Z,75.45
2023-04-06T19:19:55.599Z,73.55
2023-04-06T19:22:26.915Z,76.22
2023-04-06T19:24:57.339Z,71.07
2023-04-06T19:27:27.851Z,72.10
2023-04-06T19:29:58.532Z,72.45
2023-04-06T19:32:31.838Z,74.03
2023-04-06T19:35:04.211Z,66.85
2023-04-06T19:37:39.361Z,65.05
2023-04-06T19:40:12.059Z,63.40
2023-04-06T19:42:42.857Z,66.63
2023-04-06T19:45:13.418Z,64.68
2023-04-06T19:47:43.970Z,59.92
2023-04-06T19:50:14.212Z,65.38
2023-04-06T19:52:45.488Z,59.67
2023-04-06T19:55:16.109Z,56.08
2023-04-06T19:57:46.517Z,62.45
2023-04-06T20:00:17.794Z,55.28
2023-04-06T20:02:48.438Z,55.28
2023-04-06T20:05:19.507Z,51.88
2023-04-06T20:07:51.489Z,54.70
2023-04-06T20:10:21.874Z,51.75
2023-04-06T20:12:52.430Z,54.92
2023-04-06T20:15:24.540Z,52.50
2023-04-06T20:17:55.273Z,55.85
2023-04-06T20:20:26.045Z,46.70
2023-04-06T20:22:56.420Z,47.30
2023-04-06T20:25:28.157Z,47.63
2023-04-06T20:27:58.854Z,49.20
2023-04-06T20:30:29.372Z,49.50
2023-04-06T20:32:59.913Z,42.50
2023-04-06T20:35:30.451Z,48.13
2023-04-06T20:38:01.312Z,47.72
2023-04-06T20:40:32.639Z,45.65
2023-04-06T20:43:05.081Z,44.92
2023-04-06T20:45:39.906Z,39.50
2023-04-06T20:48:10.423Z,43.83
2023-04-06T20:50:41.027Z,48.53
2023-04-06T20:53:11.523Z,45.97
2023-04-06T20:55:45.631Z,42.33
2023-04-06T20:58:22.253Z,41.85
2023-04-06T21:00:54.466Z,40.60
2023-04-06T21:03:26.557Z,33.38
2023-04-06T21:06:03.568Z,35.95
2023-04-06T21:08:34.681Z,32.58
2023-04-06T21:11:05.888Z,25.98
2023-04-06T21:13:37.266Z,23.42
2023-04-06T21:16:08.612Z,26.08
2023-04-06T21:18:42.504Z,20.95
2023-04-06T21:21:12.958Z,20.27
2023-04-06T21:23:43.458Z,21.52
2023-04-06T21:26:17.006Z,16.45
2023-04-06T21:28:48.339Z,21.58
2023-04-06T21:31:21.249Z,22.50
2023-04-06T21:33:51.828Z,20.55
2023-04-06T21:36:22.433Z,22.55
2023-04-06T21:38:53.415Z,22.50
2023-04-06T21:41:23.775Z,19.85
2023-04-06T21:43:57.408Z,22.55
2023-04-06T21:46:28.727Z,24.67
2023-04-06T21:48:59.380Z,18.58
2023-04-06T21:51:30.554Z,20.48
2023-04-06T21:54:00.850Z,16.85
2023-04-06T21:56:32.057Z,19.15
2023-04-06T21:59:02.339Z,21.02
2023-04-06T22:01:32.764Z,21.80
2023-04-06T22:04:03.819Z,20.65
2023-04-06T22:06:34.516Z,19.33
2023-04-06T22:09:06.988Z,18.65
2023-04-06T22:11:37.531Z,19.42
2023-04-06T22:14:08.483Z,17.88
2023-04-06T22:16:38.839Z,19.83
2023-04-06T22:19:09.546Z,21.00
2023-04-06T22:21:40.677Z,15.77
2023-04-06T22:24:11.424Z,16.50
2023-04-06T22:26:42.751Z,17.83
2023-04-06T22:29:13.164Z,14.27
2023-04-06T22:31:46.082Z,17.45
2023-04-06T22:36:47.582Z,15.52
2023-04-06T22:39:18.212Z,13.63
2023-04-06T22:41:49.620Z,14.68
2023-04-06T22:44:21.200Z,12.80
2023-04-06T22:46:55.881Z,13.77
2023-04-06T22:49:26.522Z,11.70
2023-04-06T22:51:56.944Z,14.15
2023-04-06T22:54:27.482Z,13.85
2023-04-06T22:56:58.225Z,15.02
2023-04-06T22:59:28.828Z,13.20
2023-04-06T23:01:59.910Z,17.02
2023-04-06T23:04:34.639Z,15.02
2023-04-06T23:07:05.468Z,16.67
2023-04-06T23:09:35.965Z,19.75
2023-04-06T23:12:06.929Z,26.80
2023-04-06T23:14:37.730Z,26.13
2023-04-06T23:17:08.452Z,21.23
2023-04-06T23:19:39.741Z,23.23
2023-04-06T23:22:10.075Z,24.45
2023-04-06T23:24:40.580Z,27.48
2023-04-06T23:27:11.465Z,17.15
2023-04-06T23:29:44.304Z,16.60
2023-04-06T23:32:19.097Z,17.83
2023-04-06T23:34:49.843Z,21.42
2023-04-06T23:37:23.491Z,16.50
2023-04-06T23:39:53.885Z,13.15
2023-04-06T23:42:28.812Z,17.83
2023-04-06T23:44:59.617Z,19.02
2023-04-06T23:47:31.292Z,15.10
2023-04-06T23:50:01.862Z,17.40
2023-04-06T23:52:35.578Z,13.95
2023-04-06T23:55:06.830Z,14.68
2023-04-06T23:57:37.643Z,11.23
